sensor_id;sensor_type;location;lat;lon;timestamp;P1;durP1;ratioP1;P2;durP2;ratioP2
69890;SDS011;57170;43.964;21.262;2022-11-18T00:02:21;68.55;;;50.70;;
69890;SDS011;57170;43.964;21.262;2022-11-18T00:04:47;68.32;;;49.30;;
69890;SDS011;57170;43.964;21.262;2022-11-18T00:07:13;61.90;;;41.08;;
69890;SDS011;57170;43.964;21.262;2022-11-18T00:09:39;65.50;;;44.95;;
69890;SDS011;57170;43.964;21.262;2022-11-18T00:12:05;54.40;;;39.38;;
69890;SDS011;57170;43.964;21.262;2022-11-18T00:14:49;45.45;;;31.10;;
69890;SDS011;57170;43.964;21.262;2022-11-18T00:17:16;53.83;;;36.40;;
69890;SDS011;57170;43.964;21.262;2022-11-18T00:19:42;60.25;;;41.75;;
69890;SDS011;57170;43.964;21.262;2022-11-18T00:22:10;103.47;;;66.78;;
69890;SDS011;57170;43.964;21.262;2022-11-18T00:24:37;80.38;;;53.92;;
69890;SDS011;57170;43.964;21.262;2022-11-18T00:27:03;88.30;;;56.63;;
69890;SDS011;57170;43.964;21.262;2022-11-18T00:29:29;87.35;;;53.83;;
69890;SDS011;57170;43.964;21.262;2022-11-18T00:31:56;162.57;;;95.35;;
69890;SDS011;57170;43.964;21.262;2022-11-18T00:34:22;179.60;;;98.82;;
69890;SDS011;57170;43.964;21.262;2022-11-18T00:36:49;188.43;;;107.15;;
69890;SDS011;57170;43.964;21.262;2022-11-18T00:39:16;111.07;;;61.50;;
69890;SDS011;57170;43.964;21.262;2022-11-18T00:41:42;125.20;;;77.28;;
69890;SDS011;57170;43.964;21.262;2022-11-18T00:44:27;101.30;;;64.70;;
69890;SDS011;57170;43.964;21.262;2022-11-18T00:46:53;97.85;;;60.90;;
69890;SDS011;57170;43.964;21.262;2022-11-18T00:49:20;121.45;;;74.85;;
69890;SDS011;57170;43.964;21.262;2022-11-18T00:51:46;199.57;;;105.60;;
69890;SDS011;57170;43.964;21.262;2022-11-18T00:54:12;182.18;;;85.22;;
69890;SDS011;57170;43.964;21.262;2022-11-18T00:56:38;158.18;;;76.70;;
69890;SDS011;57170;43.964;21.262;2022-11-18T00:59:04;211.10;;;80.20;;
69890;SDS011;57170;43.964;21.262;2022-11-18T01:01:30;165.02;;;70.72;;
69890;SDS011;57170;43.964;21.262;2022-11-18T01:03:56;69.53;;;45.70;;
69890;SDS011;57170;43.964;21.262;2022-11-18T01:06:23;118.22;;;69.05;;
69890;SDS011;57170;43.964;21.262;2022-11-18T01:08:49;159.30;;;69.30;;
69890;SDS011;57170;43.964;21.262;2022-11-18T01:11:15;151.82;;;52.10;;
69890;SDS011;57170;43.964;21.262;2022-11-18T01:14:00;102.90;;;48.85;;
69890;SDS011;57170;43.964;21.262;2022-11-18T01:16:26;187.90;;;106.68;;
69890;SDS011;57170;43.964;21.262;2022-11-18T01:18:53;125.85;;;76.38;;
69890;SDS011;57170;43.964;21.262;2022-11-18T01:21:19;121.90;;;77.07;;
69890;SDS011;57170;43.964;21.262;2022-11-18T01:23:46;82.05;;;53.97;;
69890;SDS011;57170;43.964;21.262;2022-11-18T01:26:13;68.13;;;42.30;;
69890;SDS011;57170;43.964;21.262;2022-11-18T01:28:39;55.95;;;38.05;;
69890;SDS011;57170;43.964;21.262;2022-11-18T01:31:07;38.83;;;29.27;;
69890;SDS011;57170;43.964;21.262;2022-11-18T01:33:33;40.38;;;27.75;;
69890;SDS011;57170;43.964;21.262;2022-11-18T01:35:59;42.95;;;28.73;;
69890;SDS011;57170;43.964;21.262;2022-11-18T01:38:26;37.78;;;26.65;;
69890;SDS011;57170;43.964;21.262;2022-11-18T01:40:53;37.33;;;28.80;;
69890;SDS011;57170;43.964;21.262;2022-11-18T01:43:20;37.30;;;25.67;;
69890;SDS011;57170;43.964;21.262;2022-11-18T01:45:47;36.38;;;27.65;;
69890;SDS011;57170;43.964;21.262;2022-11-18T01:48:15;36.08;;;24.92;;
69890;SDS011;57170;43.964;21.262;2022-11-18T01:50:43;56.45;;;37.78;;
69890;SDS011;57170;43.964;21.262;2022-11-18T01:53:12;46.33;;;34.58;;
69890;SDS011;57170;43.964;21.262;2022-11-18T01:55:40;43.03;;;29.98;;
69890;SDS011;57170;43.964;21.262;2022-11-18T01:58:09;41.28;;;28.77;;
69890;SDS011;57170;43.964;21.262;2022-11-18T02:00:35;48.22;;;34.30;;
69890;SDS011;57170;43.964;21.262;2022-11-18T02:03:02;52.00;;;35.10;;
69890;SDS011;57170;43.964;21.262;2022-11-18T02:05:28;186.80;;;65.15;;
69890;SDS011;57170;43.964;21.262;2022-11-18T02:07:55;184.80;;;55.78;;
69890;SDS011;57170;43.964;21.262;2022-11-18T02:10:22;188.63;;;50.28;;
69890;SDS011;57170;43.964;21.262;2022-11-18T02:12:49;206.63;;;71.63;;
69890;SDS011;57170;43.964;21.262;2022-11-18T02:15:16;155.85;;;57.60;;
69890;SDS011;57170;43.964;21.262;2022-11-18T02:17:46;120.65;;;78.43;;
69890;SDS011;57170;43.964;21.262;2022-11-18T02:25:20;93.13;;;60.03;;
69890;SDS011;57170;43.964;21.262;2022-11-18T02:31:22;52.65;;;37.28;;
69890;SDS011;57170;43.964;21.262;2022-11-18T02:33:23;53.20;;;31.20;;
69890;SDS011;57170;43.964;21.262;2022-11-18T02:35:53;52.28;;;31.20;;
69890;SDS011;57170;43.964;21.262;2022-11-18T02:40:52;50.03;;;34.00;;
69890;SDS011;57170;43.964;21.262;2022-11-18T02:45:47;92.85;;;57.25;;
69890;SDS011;57170;43.964;21.262;2022-11-18T02:48:14;102.22;;;60.55;;
69890;SDS011;57170;43.964;21.262;2022-11-18T02:50:42;80.18;;;50.80;;
69890;SDS011;57170;43.964;21.262;2022-11-18T02:53:11;190.93;;;105.38;;
69890;SDS011;57170;43.964;21.262;2022-11-18T02:55:38;85.82;;;56.72;;
69890;SDS011;57170;43.964;21.262;2022-11-18T02:58:05;134.57;;;75.82;;
69890;SDS011;57170;43.964;21.262;2022-11-18T03:00:32;111.47;;;65.18;;
69890;SDS011;57170;43.964;21.262;2022-11-18T03:02:58;119.28;;;70.15;;
69890;SDS011;57170;43.964;21.262;2022-11-18T03:05:35;82.18;;;50.40;;
69890;SDS011;57170;43.964;21.262;2022-11-18T03:08:10;62.35;;;39.03;;
69890;SDS011;57170;43.964;21.262;2022-11-18T03:10:39;56.03;;;35.95;;
69890;SDS011;57170;43.964;21.262;2022-11-18T03:13:13;42.20;;;29.15;;
69890;SDS011;57170;43.964;21.262;2022-11-18T03:15:55;36.83;;;28.35;;
69890;SDS011;57170;43.964;21.262;2022-11-18T03:18:26;42.28;;;30.10;;
69890;SDS011;57170;43.964;21.262;2022-11-18T03:26:14;60.42;;;38.35;;
69890;SDS011;57170;43.964;21.262;2022-11-18T03:28:44;60.80;;;39.53;;
69890;SDS011;57170;43.964;21.262;2022-11-18T03:31:13;76.97;;;45.95;;
69890;SDS011;57170;43.964;21.262;2022-11-18T03:33:42;89.90;;;52.75;;
69890;SDS011;57170;43.964;21.262;2022-11-18T03:36:10;97.18;;;60.38;;
69890;SDS011;57170;43.964;21.262;2022-11-18T03:38:39;154.48;;;88.35;;
69890;SDS011;57170;43.964;21.262;2022-11-18T03:41:08;39.90;;;26.80;;
69890;SDS011;57170;43.964;21.262;2022-11-18T03:43:40;73.05;;;44.85;;
69890;SDS011;57170;43.964;21.262;2022-11-18T03:46:19;42.78;;;30.70;;
69890;SDS011;57170;43.964;21.262;2022-11-18T03:48:47;42.33;;;29.15;;
69890;SDS011;57170;43.964;21.262;2022-11-18T03:51:16;66.00;;;40.35;;
69890;SDS011;57170;43.964;21.262;2022-11-18T03:53:51;91.03;;;54.22;;
69890;SDS011;57170;43.964;21.262;2022-11-18T03:56:20;82.78;;;56.65;;
69890;SDS011;57170;43.964;21.262;2022-11-18T03:58:56;56.45;;;35.88;;
69890;SDS011;57170;43.964;21.262;2022-11-18T04:01:31;46.45;;;31.88;;
69890;SDS011;57170;43.964;21.262;2022-11-18T04:03:59;42.95;;;30.50;;
69890;SDS011;57170;43.964;21.262;2022-11-18T04:07:14;38.85;;;25.02;;
69890;SDS011;57170;43.964;21.262;2022-11-18T04:09:25;31.08;;;21.77;;
69890;SDS011;57170;43.964;21.262;2022-11-18T04:11:53;35.00;;;23.05;;
69890;SDS011;57170;43.964;21.262;2022-11-18T04:14:30;34.15;;;21.17;;
69890;SDS011;57170;43.964;21.262;2022-11-18T04:16:57;64.38;;;31.80;;
69890;SDS011;57170;43.964;21.262;2022-11-18T04:19:23;176.27;;;45.70;;
69890;SDS011;57170;43.964;21.262;2022-11-18T04:21:49;69.55;;;32.50;;
69890;SDS011;57170;43.964;21.262;2022-11-18T04:24:15;42.80;;;29.13;;
69890;SDS011;57170;43.964;21.262;2022-11-18T04:26:41;69.93;;;33.70;;
69890;SDS011;57170;43.964;21.262;2022-11-18T04:29:07;165.10;;;41.42;;
69890;SDS011;57170;43.964;21.262;2022-11-18T04:31:34;158.25;;;41.65;;
69890;SDS011;57170;43.964;21.262;2022-11-18T04:34:00;154.77;;;41.95;;
69890;SDS011;57170;43.964;21.262;2022-11-18T04:36:26;120.85;;;37.75;;
69890;SDS011;57170;43.964;21.262;2022-11-18T04:38:52;79.88;;;36.70;;
69890;SDS011;57170;43.964;21.262;2022-11-18T04:41:18;171.90;;;44.55;;
69890;SDS011;57170;43.964;21.262;2022-11-18T04:43:44;130.95;;;39.63;;
69890;SDS011;57170;43.964;21.262;2022-11-18T04:46:10;47.92;;;31.70;;
69890;SDS011;57170;43.964;21.262;2022-11-18T04:48:36;44.67;;;31.10;;
69890;SDS011;57170;43.964;21.262;2022-11-18T04:51:03;43.15;;;31.85;;
69890;SDS011;57170;43.964;21.262;2022-11-18T04:53:29;46.58;;;32.47;;
69890;SDS011;57170;43.964;21.262;2022-11-18T04:55:55;144.57;;;46.85;;
69890;SDS011;57170;43.964;21.262;2022-11-18T04:58:21;400.02;;;81.93;;
69890;SDS011;57170;43.964;21.262;2022-11-18T05:00:49;104.60;;;41.08;;
69890;SDS011;57170;43.964;21.262;2022-11-18T05:03:15;53.90;;;36.13;;
69890;SDS011;57170;43.964;21.262;2022-11-18T05:05:41;57.33;;;37.63;;
69890;SDS011;57170;43.964;21.262;2022-11-18T05:08:07;61.80;;;38.20;;
69890;SDS011;57170;43.964;21.262;2022-11-18T05:10:33;59.75;;;39.15;;
69890;SDS011;57170;43.964;21.262;2022-11-18T05:12:59;50.13;;;35.28;;
69890;SDS011;57170;43.964;21.262;2022-11-18T05:15:26;55.22;;;36.20;;
69890;SDS011;57170;43.964;21.262;2022-11-18T05:17:52;65.15;;;38.03;;
69890;SDS011;57170;43.964;21.262;2022-11-18T05:20:18;77.78;;;39.85;;
69890;SDS011;57170;43.964;21.262;2022-11-18T05:22:44;88.30;;;40.90;;
69890;SDS011;57170;43.964;21.262;2022-11-18T05:25:10;165.85;;;46.35;;
69890;SDS011;57170;43.964;21.262;2022-11-18T05:27:37;162.50;;;39.97;;
69890;SDS011;57170;43.964;21.262;2022-11-18T05:30:03;175.88;;;43.65;;
69890;SDS011;57170;43.964;21.262;2022-11-18T05:32:30;258.70;;;70.72;;
69890;SDS011;57170;43.964;21.262;2022-11-18T05:34:56;217.18;;;68.93;;
69890;SDS011;57170;43.964;21.262;2022-11-18T05:37:22;106.07;;;50.58;;
69890;SDS011;57170;43.964;21.262;2022-11-18T05:39:48;151.07;;;58.35;;
69890;SDS011;57170;43.964;21.262;2022-11-18T05:42:14;88.25;;;49.80;;
69890;SDS011;57170;43.964;21.262;2022-11-18T05:44:59;105.95;;;46.30;;
69890;SDS011;57170;43.964;21.262;2022-11-18T05:47:25;147.23;;;44.92;;
69890;SDS011;57170;43.964;21.262;2022-11-18T05:49:51;97.18;;;36.25;;
69890;SDS011;57170;43.964;21.262;2022-11-18T05:52:17;85.35;;;31.90;;
69890;SDS011;57170;43.964;21.262;2022-11-18T05:54:46;103.78;;;38.22;;
69890;SDS011;57170;43.964;21.262;2022-11-18T05:57:13;88.30;;;36.15;;
69890;SDS011;57170;43.964;21.262;2022-11-18T05:59:39;106.63;;;39.45;;
69890;SDS011;57170;43.964;21.262;2022-11-18T06:02:07;51.05;;;31.80;;
69890;SDS011;57170;43.964;21.262;2022-11-18T06:04:37;49.75;;;32.08;;
69890;SDS011;57170;43.964;21.262;2022-11-18T06:07:10;49.35;;;33.03;;
69890;SDS011;57170;43.964;21.262;2022-11-18T06:09:38;75.28;;;35.65;;
69890;SDS011;57170;43.964;21.262;2022-11-18T06:12:05;93.22;;;34.78;;
69890;SDS011;57170;43.964;21.262;2022-11-18T06:17:04;74.90;;;34.42;;
69890;SDS011;57170;43.964;21.262;2022-11-18T06:19:31;37.60;;;24.42;;
69890;SDS011;57170;43.964;21.262;2022-11-18T06:21:58;49.72;;;31.25;;
69890;SDS011;57170;43.964;21.262;2022-11-18T06:24:24;52.17;;;34.35;;
69890;SDS011;57170;43.964;21.262;2022-11-18T06:26:51;49.40;;;34.90;;
69890;SDS011;57170;43.964;21.262;2022-11-18T06:29:17;52.15;;;36.97;;
69890;SDS011;57170;43.964;21.262;2022-11-18T06:31:44;72.35;;;50.25;;
69890;SDS011;57170;43.964;21.262;2022-11-18T06:34:11;74.13;;;49.75;;
69890;SDS011;57170;43.964;21.262;2022-11-18T06:36:37;72.35;;;47.10;;
69890;SDS011;57170;43.964;21.262;2022-11-18T06:39:03;74.47;;;52.08;;
69890;SDS011;57170;43.964;21.262;2022-11-18T06:41:30;79.38;;;52.20;;
69890;SDS011;57170;43.964;21.262;2022-11-18T06:43:56;55.17;;;37.35;;
69890;SDS011;57170;43.964;21.262;2022-11-18T06:46:22;72.63;;;45.67;;
69890;SDS011;57170;43.964;21.262;2022-11-18T06:49:06;71.97;;;44.05;;
69890;SDS011;57170;43.964;21.262;2022-11-18T06:51:33;65.93;;;46.53;;
69890;SDS011;57170;43.964;21.262;2022-11-18T06:53:59;62.65;;;44.95;;
69890;SDS011;57170;43.964;21.262;2022-11-18T06:56:25;59.53;;;41.00;;
69890;SDS011;57170;43.964;21.262;2022-11-18T06:58:52;58.13;;;40.13;;
69890;SDS011;57170;43.964;21.262;2022-11-18T07:01:28;52.97;;;39.03;;
69890;SDS011;57170;43.964;21.262;2022-11-18T07:03:56;54.20;;;37.95;;
69890;SDS011;57170;43.964;21.262;2022-11-18T07:06:24;54.08;;;36.47;;
69890;SDS011;57170;43.964;21.262;2022-11-18T07:08:50;49.05;;;33.38;;
69890;SDS011;57170;43.964;21.262;2022-11-18T07:11:18;49.58;;;35.78;;
69890;SDS011;57170;43.964;21.262;2022-11-18T07:13:44;48.40;;;38.15;;
69890;SDS011;57170;43.964;21.262;2022-11-18T07:16:12;68.20;;;47.10;;
69890;SDS011;57170;43.964;21.262;2022-11-18T07:18:39;70.07;;;46.53;;
69890;SDS011;57170;43.964;21.262;2022-11-18T07:21:12;71.20;;;53.78;;
69890;SDS011;57170;43.964;21.262;2022-11-18T07:23:38;73.18;;;57.38;;
69890;SDS011;57170;43.964;21.262;2022-11-18T07:26:05;70.20;;;52.47;;
69890;SDS011;57170;43.964;21.262;2022-11-18T07:28:32;65.20;;;50.60;;
69890;SDS011;57170;43.964;21.262;2022-11-18T07:31:05;63.72;;;47.85;;
69890;SDS011;57170;43.964;21.262;2022-11-18T07:33:31;64.50;;;50.95;;
69890;SDS011;57170;43.964;21.262;2022-11-18T07:36:02;65.50;;;48.60;;
69890;SDS011;57170;43.964;21.262;2022-11-18T07:38:28;59.53;;;45.90;;
69890;SDS011;57170;43.964;21.262;2022-11-18T07:40:54;65.68;;;47.60;;
69890;SDS011;57170;43.964;21.262;2022-11-18T07:43:20;63.05;;;50.17;;
69890;SDS011;57170;43.964;21.262;2022-11-18T07:45:47;65.13;;;51.38;;
69890;SDS011;57170;43.964;21.262;2022-11-18T07:48:13;67.93;;;51.13;;
69890;SDS011;57170;43.964;21.262;2022-11-18T07:50:39;62.67;;;49.97;;
69890;SDS011;57170;43.964;21.262;2022-11-18T07:53:05;62.45;;;49.03;;
69890;SDS011;57170;43.964;21.262;2022-11-18T07:55:31;66.50;;;56.03;;
69890;SDS011;57170;43.964;21.262;2022-11-18T07:57:57;62.33;;;55.35;;
69890;SDS011;57170;43.964;21.262;2022-11-18T08:00:23;57.38;;;51.05;;
69890;SDS011;57170;43.964;21.262;2022-11-18T08:02:49;54.83;;;48.78;;
69890;SDS011;57170;43.964;21.262;2022-11-18T08:05:15;52.60;;;46.83;;
69890;SDS011;57170;43.964;21.262;2022-11-18T08:07:42;51.95;;;46.25;;
69890;SDS011;57170;43.964;21.262;2022-11-18T08:10:08;49.92;;;45.00;;
69890;SDS011;57170;43.964;21.262;2022-11-18T08:12:34;52.30;;;46.88;;
69890;SDS011;57170;43.964;21.262;2022-11-18T08:15:00;49.65;;;44.75;;
69890;SDS011;57170;43.964;21.262;2022-11-18T08:17:27;51.40;;;46.13;;
69890;SDS011;57170;43.964;21.262;2022-11-18T08:19:53;52.95;;;46.58;;
69890;SDS011;57170;43.964;21.262;2022-11-18T08:22:19;48.40;;;43.38;;
69890;SDS011;57170;43.964;21.262;2022-11-18T08:24:45;52.80;;;47.15;;
69890;SDS011;57170;43.964;21.262;2022-11-18T08:27:12;51.50;;;46.20;;
69890;SDS011;57170;43.964;21.262;2022-11-18T08:29:38;49.35;;;42.20;;
69890;SDS011;57170;43.964;21.262;2022-11-18T08:32:04;54.53;;;48.83;;
69890;SDS011;57170;43.964;21.262;2022-11-18T08:34:30;57.85;;;51.08;;
69890;SDS011;57170;43.964;21.262;2022-11-18T08:36:57;60.65;;;53.65;;
69890;SDS011;57170;43.964;21.262;2022-11-18T08:39:23;62.17;;;54.05;;
69890;SDS011;57170;43.964;21.262;2022-11-18T08:41:49;66.30;;;57.55;;
69890;SDS011;57170;43.964;21.262;2022-11-18T08:44:15;62.92;;;56.20;;
69890;SDS011;57170;43.964;21.262;2022-11-18T08:46:42;66.38;;;57.10;;
69890;SDS011;57170;43.964;21.262;2022-11-18T08:49:11;75.30;;;67.45;;
69890;SDS011;57170;43.964;21.262;2022-11-18T08:51:37;73.88;;;65.97;;
69890;SDS011;57170;43.964;21.262;2022-11-18T08:54:03;74.25;;;61.95;;
69890;SDS011;57170;43.964;21.262;2022-11-18T08:56:29;66.57;;;57.28;;
69890;SDS011;57170;43.964;21.262;2022-11-18T08:58:56;63.28;;;55.90;;
69890;SDS011;57170;43.964;21.262;2022-11-18T09:01:22;59.85;;;53.03;;
69890;SDS011;57170;43.964;21.262;2022-11-18T09:03:48;58.13;;;51.90;;
69890;SDS011;57170;43.964;21.262;2022-11-18T09:06:15;56.05;;;45.55;;
69890;SDS011;57170;43.964;21.262;2022-11-18T09:08:42;45.70;;;39.78;;
69890;SDS011;57170;43.964;21.262;2022-11-18T09:11:18;59.55;;;46.17;;
69890;SDS011;57170;43.964;21.262;2022-11-18T09:13:45;50.58;;;39.97;;
69890;SDS011;57170;43.964;21.262;2022-11-18T09:16:11;54.35;;;44.22;;
69890;SDS011;57170;43.964;21.262;2022-11-18T09:18:38;53.08;;;47.05;;
69890;SDS011;57170;43.964;21.262;2022-11-18T09:21:05;51.53;;;45.88;;
69890;SDS011;57170;43.964;21.262;2022-11-18T09:23:32;60.50;;;49.00;;
69890;SDS011;57170;43.964;21.262;2022-11-18T09:25:59;67.72;;;50.38;;
69890;SDS011;57170;43.964;21.262;2022-11-18T09:28:26;59.90;;;46.85;;
69890;SDS011;57170;43.964;21.262;2022-11-18T09:30:52;55.95;;;45.50;;
69890;SDS011;57170;43.964;21.262;2022-11-18T09:33:18;56.42;;;43.67;;
69890;SDS011;57170;43.964;21.262;2022-11-18T09:35:45;54.45;;;39.30;;
69890;SDS011;57170;43.964;21.262;2022-11-18T09:38:11;45.38;;;33.42;;
69890;SDS011;57170;43.964;21.262;2022-11-18T09:41:02;36.53;;;28.88;;
69890;SDS011;57170;43.964;21.262;2022-11-18T09:43:36;33.97;;;30.10;;
69890;SDS011;57170;43.964;21.262;2022-11-18T09:46:12;33.55;;;29.50;;
69890;SDS011;57170;43.964;21.262;2022-11-18T09:48:43;39.17;;;31.52;;
69890;SDS011;57170;43.964;21.262;2022-11-18T09:51:36;54.63;;;44.17;;
69890;SDS011;57170;43.964;21.262;2022-11-18T09:54:04;52.30;;;43.60;;
69890;SDS011;57170;43.964;21.262;2022-11-18T09:56:32;52.03;;;39.92;;
69890;SDS011;57170;43.964;21.262;2022-11-18T09:58:59;44.22;;;38.00;;
69890;SDS011;57170;43.964;21.262;2022-11-18T10:01:25;39.92;;;33.72;;
69890;SDS011;57170;43.964;21.262;2022-11-18T10:03:51;36.08;;;32.05;;
69890;SDS011;57170;43.964;21.262;2022-11-18T10:24:44;36.38;;;28.98;;
69890;SDS011;57170;43.964;21.262;2022-11-18T10:27:12;31.60;;;27.85;;
69890;SDS011;57170;43.964;21.262;2022-11-18T10:29:39;34.45;;;29.55;;
69890;SDS011;57170;43.964;21.262;2022-11-18T10:32:06;33.70;;;28.08;;
69890;SDS011;57170;43.964;21.262;2022-11-18T10:34:33;30.58;;;26.13;;
69890;SDS011;57170;43.964;21.262;2022-11-18T10:37:06;32.72;;;22.95;;
69890;SDS011;57170;43.964;21.262;2022-11-18T10:39:51;19.95;;;17.85;;
69890;SDS011;57170;43.964;21.262;2022-11-18T10:42:24;28.38;;;22.95;;
69890;SDS011;57170;43.964;21.262;2022-11-18T10:44:51;21.50;;;18.58;;
69890;SDS011;57170;43.964;21.262;2022-11-18T10:47:22;28.38;;;21.95;;
69890;SDS011;57170;43.964;21.262;2022-11-18T10:49:49;28.10;;;22.98;;
69890;SDS011;57170;43.964;21.262;2022-11-18T10:52:15;36.08;;;27.60;;
69890;SDS011;57170;43.964;21.262;2022-11-18T10:54:42;28.60;;;23.08;;
69890;SDS011;57170;43.964;21.262;2022-11-18T10:57:17;25.00;;;20.80;;
69890;SDS011;57170;43.964;21.262;2022-11-18T10:59:54;32.38;;;25.10;;
69890;SDS011;57170;43.964;21.262;2022-11-18T11:02:34;37.60;;;30.13;;
69890;SDS011;57170;43.964;21.262;2022-11-18T11:05:15;32.50;;;27.60;;
69890;SDS011;57170;43.964;21.262;2022-11-18T11:07:42;36.63;;;30.08;;
69890;SDS011;57170;43.964;21.262;2022-11-18T11:15:57;30.52;;;22.98;;
69890;SDS011;57170;43.964;21.262;2022-11-18T11:17:58;17.75;;;12.98;;
69890;SDS011;57170;43.964;21.262;2022-11-18T11:20:43;11.55;;;8.30;;
69890;SDS011;57170;43.964;21.262;2022-11-18T11:23:13;9.82;;;5.70;;
69890;SDS011;57170;43.964;21.262;2022-11-18T11:28:24;10.90;;;6.93;;
69890;SDS011;57170;43.964;21.262;2022-11-18T11:31:05;16.85;;;7.25;;
69890;SDS011;57170;43.964;21.262;2022-11-18T11:38:52;11.38;;;8.10;;
69890;SDS011;57170;43.964;21.262;2022-11-18T11:41:39;18.90;;;10.55;;
69890;SDS011;57170;43.964;21.262;2022-11-18T11:44:21;13.18;;;10.20;;
69890;SDS011;57170;43.964;21.262;2022-11-18T11:47:02;21.25;;;13.35;;
69890;SDS011;57170;43.964;21.262;2022-11-18T11:49:52;17.63;;;13.18;;
69890;SDS011;57170;43.964;21.262;2022-11-18T11:52:32;16.33;;;12.38;;
69890;SDS011;57170;43.964;21.262;2022-11-18T11:55:03;17.20;;;10.98;;
69890;SDS011;57170;43.964;21.262;2022-11-18T12:00:06;14.65;;;10.95;;
69890;SDS011;57170;43.964;21.262;2022-11-18T12:05:13;17.27;;;9.50;;
69890;SDS011;57170;43.964;21.262;2022-11-18T12:07:44;21.50;;;11.95;;
69890;SDS011;57170;43.964;21.262;2022-11-18T12:15:18;13.15;;;9.77;;
69890;SDS011;57170;43.964;21.262;2022-11-18T12:23:20;12.35;;;9.35;;
69890;SDS011;57170;43.964;21.262;2022-11-18T12:30:48;18.60;;;15.13;;
69890;SDS011;57170;43.964;21.262;2022-11-18T12:33:14;24.27;;;16.83;;
69890;SDS011;57170;43.964;21.262;2022-11-18T12:35:45;20.83;;;16.88;;
69890;SDS011;57170;43.964;21.262;2022-11-18T12:38:26;24.63;;;18.58;;
69890;SDS011;57170;43.964;21.262;2022-11-18T12:40:53;16.50;;;12.13;;
69890;SDS011;57170;43.964;21.262;2022-11-18T12:48:54;13.70;;;8.80;;
69890;SDS011;57170;43.964;21.262;2022-11-18T12:53:48;12.07;;;8.68;;
69890;SDS011;57170;43.964;21.262;2022-11-18T12:58:49;11.65;;;9.00;;
69890;SDS011;57170;43.964;21.262;2022-11-18T13:01:16;9.70;;;6.25;;
69890;SDS011;57170;43.964;21.262;2022-11-18T13:03:42;9.55;;;7.38;;
69890;SDS011;57170;43.964;21.262;2022-11-18T13:08:47;13.43;;;9.00;;
69890;SDS011;57170;43.964;21.262;2022-11-18T13:11:14;12.63;;;9.95;;
69890;SDS011;57170;43.964;21.262;2022-11-18T13:14:00;14.15;;;11.30;;
69890;SDS011;57170;43.964;21.262;2022-11-18T13:16:46;13.32;;;10.02;;
69890;SDS011;57170;43.964;21.262;2022-11-18T13:19:31;12.43;;;7.50;;
69890;SDS011;57170;43.964;21.262;2022-11-18T13:21:58;16.48;;;7.15;;
69890;SDS011;57170;43.964;21.262;2022-11-18T13:24:44;8.63;;;7.07;;
69890;SDS011;57170;43.964;21.262;2022-11-18T13:30:01;12.23;;;7.45;;
69890;SDS011;57170;43.964;21.262;2022-11-18T13:32:29;11.63;;;6.35;;
69890;SDS011;57170;43.964;21.262;2022-11-18T13:34:56;8.05;;;6.50;;
69890;SDS011;57170;43.964;21.262;2022-11-18T13:37:26;6.82;;;5.78;;
69890;SDS011;57170;43.964;21.262;2022-11-18T13:39:53;9.82;;;6.32;;
69890;SDS011;57170;43.964;21.262;2022-11-18T13:42:27;10.85;;;7.43;;
69890;SDS011;57170;43.964;21.262;2022-11-18T13:44:57;14.20;;;8.35;;
69890;SDS011;57170;43.964;21.262;2022-11-18T13:47:34;9.40;;;7.47;;
69890;SDS011;57170;43.964;21.262;2022-11-18T13:52:43;16.77;;;13.40;;
69890;SDS011;57170;43.964;21.262;2022-11-18T13:55:15;15.18;;;11.27;;
69890;SDS011;57170;43.964;21.262;2022-11-18T13:57:51;9.60;;;7.75;;
69890;SDS011;57170;43.964;21.262;2022-11-18T14:00:22;11.63;;;9.63;;
69890;SDS011;57170;43.964;21.262;2022-11-18T14:02:52;14.05;;;10.50;;
69890;SDS011;57170;43.964;21.262;2022-11-18T14:05:19;18.02;;;11.32;;
69890;SDS011;57170;43.964;21.262;2022-11-18T14:07:59;11.00;;;6.80;;
69890;SDS011;57170;43.964;21.262;2022-11-18T14:10:29;9.68;;;7.10;;
69890;SDS011;57170;43.964;21.262;2022-11-18T14:12:59;8.30;;;5.88;;
69890;SDS011;57170;43.964;21.262;2022-11-18T14:17:55;9.52;;;7.43;;
69890;SDS011;57170;43.964;21.262;2022-11-18T14:20:23;8.20;;;6.75;;
69890;SDS011;57170;43.964;21.262;2022-11-18T14:22:53;9.90;;;7.47;;
69890;SDS011;57170;43.964;21.262;2022-11-18T14:25:28;10.07;;;7.07;;
69890;SDS011;57170;43.964;21.262;2022-11-18T14:27:55;12.43;;;8.38;;
69890;SDS011;57170;43.964;21.262;2022-11-18T14:35:29;10.40;;;6.03;;
69890;SDS011;57170;43.964;21.262;2022-11-18T14:37:55;13.38;;;9.38;;
69890;SDS011;57170;43.964;21.262;2022-11-18T14:40:21;7.68;;;6.30;;
69890;SDS011;57170;43.964;21.262;2022-11-18T14:42:47;9.68;;;6.75;;
69890;SDS011;57170;43.964;21.262;2022-11-18T14:45:13;13.73;;;6.53;;
69890;SDS011;57170;43.964;21.262;2022-11-18T14:47:40;9.80;;;7.60;;
69890;SDS011;57170;43.964;21.262;2022-11-18T14:50:12;14.55;;;9.75;;
69890;SDS011;57170;43.964;21.262;2022-11-18T14:52:38;8.88;;;5.70;;
69890;SDS011;57170;43.964;21.262;2022-11-18T14:55:04;10.65;;;7.28;;
69890;SDS011;57170;43.964;21.262;2022-11-18T14:57:31;9.70;;;5.32;;
69890;SDS011;57170;43.964;21.262;2022-11-18T14:59:57;11.73;;;6.35;;
69890;SDS011;57170;43.964;21.262;2022-11-18T15:02:23;7.43;;;5.82;;
69890;SDS011;57170;43.964;21.262;2022-11-18T15:04:49;7.68;;;5.38;;
69890;SDS011;57170;43.964;21.262;2022-11-18T15:07:16;8.00;;;5.28;;
69890;SDS011;57170;43.964;21.262;2022-11-18T15:09:43;8.77;;;6.43;;
69890;SDS011;57170;43.964;21.262;2022-11-18T15:12:09;10.38;;;8.93;;
69890;SDS011;57170;43.964;21.262;2022-11-18T15:14:35;12.35;;;8.63;;
69890;SDS011;57170;43.964;21.262;2022-11-18T15:17:02;37.10;;;24.17;;
69890;SDS011;57170;43.964;21.262;2022-11-18T15:19:28;47.90;;;35.15;;
69890;SDS011;57170;43.964;21.262;2022-11-18T15:21:54;47.80;;;36.10;;
69890;SDS011;57170;43.964;21.262;2022-11-18T15:24:20;58.42;;;45.88;;
69890;SDS011;57170;43.964;21.262;2022-11-18T15:26:46;44.85;;;35.50;;
69890;SDS011;57170;43.964;21.262;2022-11-18T15:29:17;52.03;;;43.55;;
69890;SDS011;57170;43.964;21.262;2022-11-18T15:31:43;39.67;;;28.02;;
69890;SDS011;57170;43.964;21.262;2022-11-18T15:34:09;33.72;;;28.75;;
69890;SDS011;57170;43.964;21.262;2022-11-18T15:36:36;36.20;;;30.95;;
69890;SDS011;57170;43.964;21.262;2022-11-18T15:39:02;34.90;;;26.85;;
69890;SDS011;57170;43.964;21.262;2022-11-18T15:41:29;32.60;;;24.50;;
69890;SDS011;57170;43.964;21.262;2022-11-18T15:43:56;10.73;;;8.60;;
69890;SDS011;57170;43.964;21.262;2022-11-18T15:46:23;7.03;;;4.68;;
69890;SDS011;57170;43.964;21.262;2022-11-18T15:48:50;7.22;;;5.28;;
69890;SDS011;57170;43.964;21.262;2022-11-18T15:51:16;5.30;;;3.30;;
69890;SDS011;57170;43.964;21.262;2022-11-18T15:53:42;7.13;;;4.55;;
69890;SDS011;57170;43.964;21.262;2022-11-18T15:56:12;6.70;;;4.03;;
69890;SDS011;57170;43.964;21.262;2022-11-18T15:58:38;6.47;;;4.20;;
69890;SDS011;57170;43.964;21.262;2022-11-18T16:01:04;6.47;;;4.00;;